createdAt,value
2023-03-17T00:03:29.734Z,59.30
2023-03-17T00:08:34.270Z,71.70
2023-03-17T00:13:35.816Z,64.60
2023-03-17T00:18:37.673Z,61.20
2023-03-17T00:23:39.677Z,64.90
2023-03-17T00:28:41.278Z,56.70
2023-03-17T00:33:45.419Z,66.00
2023-03-17T00:38:47.462Z,70.60
2023-03-17T00:43:49.786Z,60.40
2023-03-17T00:48:51.299Z,80.90
2023-03-17T00:53:52.816Z,69.00
2023-03-17T00:58:54.531Z,61.40
2023-03-17T01:03:56.660Z,67.20
2023-03-17T01:08:58.303Z,73.50
2023-03-17T01:13:59.816Z,69.40
2023-03-17T01:19:01.496Z,72.90
2023-03-17T01:24:03.958Z,60.70
2023-03-17T01:29:07.913Z,61.30
2023-03-17T01:34:10.217Z,63.80
2023-03-17T01:39:13.337Z,62.50
2023-03-17T01:44:17.479Z,63.20
2023-03-17T01:49:38.496Z,52.90
2023-03-17T01:54:46.289Z,58.50
2023-03-17T01:59:53.571Z,58.10
2023-03-17T02:04:55.414Z,55.10
2023-03-17T02:09:58.259Z,57.20
2023-03-17T02:14:59.803Z,52.00
2023-03-17T02:20:17.219Z,50.00
2023-03-17T02:25:21.528Z,48.00
2023-03-17T02:30:24.121Z,43.80
2023-03-17T02:35:25.627Z,43.90
2023-03-17T02:40:27.517Z,56.10
2023-03-17T02:45:30.011Z,41.00
2023-03-17T02:50:32.216Z,40.60
2023-03-17T02:55:33.851Z,50.20
2023-03-17T03:00:35.439Z,52.10
2023-03-17T03:05:37.722Z,54.80
2023-03-17T03:10:39.487Z,60.40
2023-03-17T03:15:42.919Z,49.60
2023-03-17T03:20:47.306Z,50.40
2023-03-17T03:25:48.818Z,60.90
2023-03-17T03:30:50.541Z,51.00
2023-03-17T03:35:52.384Z,49.90
2023-03-17T03:40:54.041Z,43.40
2023-03-17T03:45:56.170Z,41.50
2023-03-17T03:51:00.042Z,45.70
2023-03-17T03:56:02.078Z,39.00
2023-03-17T04:01:09.962Z,39.40
2023-03-17T04:06:11.851Z,38.70
2023-03-17T04:11:13.599Z,43.20
2023-03-17T04:16:16.726Z,39.10
2023-03-17T04:21:19.307Z,40.50
2023-03-17T04:26:23.170Z,42.00
2023-03-17T04:31:24.789Z,39.50
2023-03-17T04:36:27.127Z,27.00
2023-03-17T04:41:28.666Z,36.00
2023-03-17T04:46:30.699Z,29.10
2023-03-17T04:51:32.355Z,28.80
2023-03-17T04:56:34.811Z,33.30
2023-03-17T05:01:39.096Z,34.10
2023-03-17T05:06:41.283Z,32.30
2023-03-17T05:11:42.874Z,35.00
2023-03-17T05:16:47.923Z,42.10
2023-03-17T05:21:49.955Z,50.90
2023-03-17T05:26:51.456Z,50.70
2023-03-17T05:31:53.017Z,42.80
2023-03-17T05:36:54.526Z,43.40
2023-03-17T05:41:57.198Z,51.00
2023-03-17T05:46:59.795Z,37.50
2023-03-17T05:52:01.564Z,37.20
2023-03-17T05:57:04.319Z,56.10
2023-03-17T06:02:05.886Z,59.20
2023-03-17T06:07:09.817Z,35.10
2023-03-17T06:12:11.406Z,35.00
2023-03-17T06:17:14.703Z,32.90
2023-03-17T06:22:16.232Z,34.10
2023-03-17T06:27:17.726Z,33.50
2023-03-17T06:32:21.073Z,39.40
2023-03-17T06:37:22.734Z,34.90
2023-03-17T06:42:24.244Z,24.60
2023-03-17T06:47:26.129Z,27.30
2023-03-17T06:52:28.097Z,28.00
2023-03-17T06:57:29.637Z,27.70
2023-03-17T07:02:31.144Z,37.40
2023-03-17T07:07:32.659Z,31.20
2023-03-17T07:12:34.419Z,33.90
2023-03-17T07:17:36.427Z,32.10
2023-03-17T07:22:38.041Z,29.70
2023-03-17T07:27:39.905Z,30.00
2023-03-17T07:32:42.087Z,32.40
2023-03-17T07:37:44.966Z,30.00
2023-03-17T07:42:46.524Z,28.00
2023-03-17T07:47:48.180Z,28.40
2023-03-17T07:52:49.697Z,26.30
2023-03-17T07:57:51.437Z,27.50
2023-03-17T08:03:06.967Z,17.50
2023-03-17T08:08:11.553Z,19.90
2023-03-17T08:13:13.082Z,22.50
2023-03-17T08:18:14.596Z,19.70
2023-03-17T08:23:16.950Z,15.70
2023-03-17T08:28:18.515Z,15.20
2023-03-17T08:33:20.895Z,12.80
2023-03-17T08:38:22.698Z,14.40
2023-03-17T08:43:24.273Z,17.10
2023-03-17T08:48:25.762Z,14.00
2023-03-17T08:53:27.826Z,14.50
2023-03-17T08:58:29.506Z,27.30
2023-03-17T09:03:32.769Z,13.60
2023-03-17T09:08:35.358Z,11.90
2023-03-17T09:13:39.143Z,12.70
2023-03-17T09:18:41.175Z,8.90
2023-03-17T09:23:43.491Z,15.00
2023-03-17T09:28:45.355Z,12.90
2023-03-17T09:33:47.802Z,16.30
2023-03-17T09:38:49.527Z,9.90
2023-03-17T09:44:19.443Z,10.60
2023-03-17T09:49:26.680Z,15.70
2023-03-17T09:54:38.214Z,13.00
2023-03-17T09:59:43.860Z,11.70
2023-03-17T10:04:46.256Z,10.90
2023-03-17T10:10:14.769Z,11.20
2023-03-17T10:15:51.919Z,18.70
2023-03-17T10:20:58.831Z,11.20
2023-03-17T10:26:08.229Z,15.40
2023-03-17T10:31:19.270Z,28.20
2023-03-17T10:36:40.381Z,11.50
2023-03-17T10:41:53.666Z,12.80
2023-03-17T10:46:57.179Z,9.60
2023-03-17T10:51:58.782Z,10.50
2023-03-17T10:57:06.305Z,11.80
2023-03-17T11:02:28.303Z,10.50
2023-03-17T11:07:39.957Z,10.80
2023-03-17T11:12:41.794Z,13.60
2023-03-17T11:18:01.867Z,12.90
2023-03-17T11:23:29.819Z,13.30
2023-03-17T11:28:39.129Z,11.80
2023-03-17T11:33:56.379Z,16.20
2023-03-17T11:39:17.522Z,14.00
2023-03-17T11:44:24.889Z,13.00
2023-03-17T11:49:36.379Z,11.70
2023-03-17T11:54:58.821Z,11.70
2023-03-17T12:00:05.497Z,11.50
2023-03-17T12:05:13.332Z,9.50
2023-03-17T12:10:31.264Z,8.40
2023-03-17T12:15:38.890Z,9.60
2023-03-17T12:20:59.864Z,8.20
2023-03-17T12:26:13.727Z,7.30
2023-03-17T12:31:22.898Z,9.40
2023-03-17T12:36:25.214Z,12.30
2023-03-17T12:41:49.113Z,11.30
2023-03-17T12:47:36.348Z,12.60
2023-03-17T12:52:40.907Z,14.20
2023-03-17T12:58:15.834Z,13.00
2023-03-17T13:03:28.056Z,13.80
2023-03-17T13:08:35.971Z,12.40
2023-03-17T13:13:45.100Z,13.30
2023-03-17T13:18:50.734Z,10.00
2023-03-17T13:24:13.983Z,7.90
2023-03-17T13:29:34.212Z,11.70
2023-03-17T13:34:46.615Z,11.10
2023-03-17T13:39:48.806Z,12.30
2023-03-17T13:45:32.712Z,13.70
2023-03-17T13:50:34.490Z,12.10
2023-03-17T13:55:38.691Z,13.20
2023-03-17T14:00:44.359Z,11.30
2023-03-17T14:05:50.921Z,12.90
2023-03-17T14:11:03.006Z,10.30
2023-03-17T14:16:27.875Z,17.40
2023-03-17T14:21:33.785Z,12.40
2023-03-17T14:26:35.787Z,11.40
2023-03-17T14:31:37.389Z,13.90
2023-03-17T14:36:38.937Z,11.40
2023-03-17T14:41:40.973Z,10.00
2023-03-17T14:46:42.849Z,9.60
2023-03-17T14:51:45.001Z,11.90
2023-03-17T14:56:51.080Z,11.40
2023-03-17T15:02:02.218Z,13.50
2023-03-17T15:07:06.730Z,13.50
2023-03-17T15:12:23.630Z,12.30
2023-03-17T15:17:32.894Z,8.90
2023-03-17T15:22:34.376Z,13.30
2023-03-17T15:27:35.992Z,15.20
2023-03-17T15:32:38.430Z,12.90
2023-03-17T15:37:41.270Z,15.50
2023-03-17T15:42:42.933Z,23.00
2023-03-17T15:47:47.144Z,15.80
2023-03-17T15:52:49.006Z,14.40
2023-03-17T15:57:55.182Z,12.60
2023-03-17T16:03:01.482Z,15.40
2023-03-17T16:08:03.509Z,11.70
2023-03-17T16:13:05.355Z,12.20
2023-03-17T16:18:13.871Z,13.50
2023-03-17T16:23:22.189Z,14.80
2023-03-17T16:28:30.750Z,14.10
2023-03-17T16:33:40.453Z,14.60
2023-03-17T16:38:42.835Z,14.80
2023-03-17T16:43:46.271Z,15.80
2023-03-17T16:48:49.684Z,18.10
2023-03-17T16:53:51.587Z,17.50
2023-03-17T16:58:53.091Z,18.30
2023-03-17T17:03:56.022Z,18.00
2023-03-17T17:08:57.531Z,17.70
2023-03-17T17:13:59.896Z,25.10
2023-03-17T17:19:03.690Z,38.80
2023-03-17T17:24:05.924Z,17.60
2023-03-17T17:29:07.550Z,13.90
2023-03-17T17:34:09.367Z,12.30
2023-03-17T17:39:14.590Z,17.10
2023-03-17T17:44:16.388Z,14.20
2023-03-17T17:49:18.073Z,16.30
2023-03-17T17:54:19.849Z,21.00
2023-03-17T17:59:22.288Z,18.80
2023-03-17T18:04:23.808Z,19.20
2023-03-17T18:09:25.335Z,16.90
2023-03-17T18:14:27.823Z,24.70
2023-03-17T18:19:29.457Z,21.20
2023-03-17T18:24:31.280Z,20.80
2023-03-17T18:29:32.828Z,33.50
2023-03-17T18:34:46.666Z,40.40
2023-03-17T18:40:05.668Z,31.30
2023-03-17T18:45:11.863Z,126.60
2023-03-17T18:50:16.505Z,89.20
2023-03-17T18:55:18.243Z,107.90
2023-03-17T19:00:20.397Z,26.80
2023-03-17T19:05:22.406Z,36.50
2023-03-17T19:10:23.948Z,35.00
2023-03-17T19:15:26.306Z,32.80
2023-03-17T19:20:28.149Z,42.00
2023-03-17T19:25:30.381Z,29.80
2023-03-17T19:30:32.342Z,38.80
2023-03-17T19:35:34.077Z,30.50
2023-03-17T19:40:37.089Z,32.50
2023-03-17T19:45:38.707Z,31.00
2023-03-17T19:50:40.856Z,33.50
2023-03-17T19:55:44.046Z,30.70
2023-03-17T20:00:45.609Z,30.00
2023-03-17T20:05:47.169Z,33.50
2023-03-17T20:10:55.267Z,27.80
2023-03-17T20:15:57.404Z,30.70
2023-03-17T20:21:00.500Z,38.60
2023-03-17T20:26:02.559Z,37.00
2023-03-17T20:31:04.949Z,28.30
2023-03-17T20:36:06.999Z,30.00
2023-03-17T20:41:11.461Z,62.20
2023-03-17T20:46:22.580Z,28.60
2023-03-17T20:51:26.118Z,26.90
2023-03-17T20:56:29.940Z,23.00
2023-03-17T21:01:36.636Z,20.00
2023-03-17T21:06:39.756Z,20.30
2023-03-17T21:11:43.218Z,17.50
2023-03-17T21:16:47.272Z,14.30
2023-03-17T21:21:49.416Z,13.30
2023-03-17T21:26:51.105Z,15.20
2023-03-17T21:31:52.778Z,14.40
2023-03-17T21:36:54.711Z,16.40
2023-03-17T21:41:57.093Z,15.30
2023-03-17T21:47:02.948Z,18.70
2023-03-17T21:52:05.375Z,16.90
2023-03-17T21:57:07.214Z,18.30
2023-03-17T22:02:11.644Z,18.30
2023-03-17T22:07:13.702Z,18.00
2023-03-17T22:12:15.708Z,18.70
2023-03-17T22:17:17.715Z,16.30
2023-03-17T22:22:23.644Z,16.30
2023-03-17T22:27:25.414Z,26.00
2023-03-17T22:32:26.920Z,23.70
2023-03-17T22:37:29.027Z,18.10
2023-03-17T22:42:31.213Z,14.20
2023-03-17T22:47:32.722Z,11.10
2023-03-17T22:52:35.081Z,14.30
2023-03-17T22:57:39.349Z,13.60
2023-03-17T23:02:41.261Z,12.80
2023-03-17T23:07:50.427Z,9.70
2023-03-17T23:12:53.548Z,11.40
2023-03-17T23:17:55.070Z,13.10
2023-03-17T23:22:57.190Z,25.30
2023-03-17T23:27:58.932Z,17.70
2023-03-17T23:33:01.368Z,18.90
2023-03-17T23:38:04.665Z,12.00
2023-03-17T23:43:06.716Z,9.00
2023-03-17T23:48:10.016Z,10.10
2023-03-17T23:53:11.683Z,13.40
2023-03-17T23:58:13.977Z,14.50
